Time;durP1;ratioP1;P1;durP2;ratioP2;P2;SDS_P1;SDS_P2;PMS_P1;PMS_P2;Temp;Humidity;BMP_temperature;BMP_pressure;BME280_temperature;BME280_humidity;BME280_pressure;Samples;Min_cycle;Max_cycle;Signal;HPM_P1;HPM_P2
2023/02/05 00:01:22;;;;;;;5.45;2.40;;;9.10;99.90;;;;;;4946249;28;20052;-77
2023/02/05 00:03:49;;;;;;;4.13;2.25;;;9.10;99.90;;;;;;4943778;28;20051;-77
2023/02/05 00:06:16;;;;;;;4.13;1.88;;;9.10;99.90;;;;;;4960678;28;20134;-77
2023/02/05 00:08:42;;;;;;;3.47;2.10;;;9.10;99.90;;;;;;4965647;28;20428;-77
2023/02/05 00:11:09;;;;;;;4.38;2.45;;;9.10;99.90;;;;;;4975355;28;20299;-77
2023/02/05 00:13:37;;;;;;;2.47;1.70;;;9.10;99.90;;;;;;4974138;28;20357;-77
2023/02/05 00:16:18;;;;;;;3.70;2.22;;;9.10;99.90;;;;;;4974790;28;20043;-77
2023/02/05 00:18:46;;;;;;;3.85;2.28;;;9.10;99.90;;;;;;4958165;28;20058;-77
2023/02/05 00:21:13;;;;;;;4.22;2.40;;;9.10;99.90;;;;;;4959327;28;20161;-77
2023/02/05 00:23:42;;;;;;;4.10;2.92;;;9.10;99.90;;;;;;4912711;29;20055;-77
2023/02/05 00:26:09;;;;;;;4.00;2.45;;;9.10;99.90;;;;;;4943178;29;20244;-78
2023/02/05 00:28:36;;;;;;;3.83;1.88;;;9.10;99.90;;;;;;4956899;28;20047;-78
2023/02/05 00:31:15;;;;;;;3.55;2.03;;;9.10;99.90;;;;;;4927476;29;20047;-78
2023/02/05 00:33:42;;;;;;;4.75;2.88;;;9.10;99.90;;;;;;4957939;28;20047;-77
2023/02/05 00:36:09;;;;;;;3.63;2.10;;;9.10;99.90;;;;;;4974533;28;20130;-77
2023/02/05 00:38:38;;;;;;;3.63;2.17;;;9.10;99.90;;;;;;4973962;28;20551;-78
2023/02/05 00:41:05;;;;;;;3.90;2.80;;;9.00;99.90;;;;;;4943155;29;20139;-78
2023/02/05 00:43:32;;;;;;;5.10;3.03;;;9.10;99.90;;;;;;4973357;28;20043;-78
2023/02/05 00:45:59;;;;;;;5.93;2.92;;;9.00;99.90;;;;;;4975147;28;20293;-78
2023/02/05 00:48:25;;;;;;;4.03;2.67;;;9.00;99.90;;;;;;4974673;28;20473;-78
2023/02/05 00:50:52;;;;;;;5.05;3.33;;;9.10;99.90;;;;;;4942795;29;20059;-77
2023/02/05 00:53:19;;;;;;;4.50;2.53;;;8.90;99.90;;;;;;4927088;29;20082;-78
2023/02/05 00:55:46;;;;;;;6.72;2.47;;;8.90;99.90;;;;;;4942976;29;20086;-78
2023/02/05 00:58:13;;;;;;;4.65;2.42;;;8.80;99.90;;;;;;4943461;28;20554;-78
2023/02/05 01:00:39;;;;;;;4.20;2.30;;;8.80;99.90;;;;;;4973777;28;20091;-78
2023/02/05 01:03:06;;;;;;;4.07;2.50;;;8.70;99.90;;;;;;4957835;28;20063;-78
2023/02/05 01:05:33;;;;;;;5.70;3.60;;;8.70;99.90;;;;;;4942483;29;20569;-78
2023/02/05 01:08:01;;;;;;;3.83;2.13;;;8.70;99.90;;;;;;4958394;28;20055;-78
2023/02/05 01:10:27;;;;;;;8.10;2.90;;;8.70;99.90;;;;;;4939976;29;20114;-78
2023/02/05 01:12:54;;;;;;;5.43;2.53;;;8.70;99.90;;;;;;4925148;29;20055;-78
2023/02/05 01:15:21;;;;;;;6.80;2.95;;;8.70;99.90;;;;;;4942146;29;20047;-79
2023/02/05 01:17:48;;;;;;;4.30;2.30;;;8.70;99.90;;;;;;4973752;28;20414;-79
2023/02/05 01:20:14;;;;;;;3.00;1.80;;;8.70;99.90;;;;;;4943748;28;20377;-78
2023/02/05 01:22:41;;;;;;;4.05;2.33;;;8.70;99.90;;;;;;4942336;29;20087;-78
2023/02/05 01:25:08;;;;;;;4.90;2.20;;;8.70;99.90;;;;;;4943304;28;20267;-79
2023/02/05 01:27:35;;;;;;;4.88;2.00;;;8.70;99.90;;;;;;4958039;28;20061;-78
2023/02/05 01:30:02;;;;;;;4.15;2.35;;;8.80;99.90;;;;;;4941615;28;20059;-78
2023/02/05 01:32:29;;;;;;;3.35;2.13;;;8.80;99.90;;;;;;4937394;29;20066;-79
2023/02/05 01:34:56;;;;;;;4.07;2.30;;;8.80;99.90;;;;;;4925692;29;20153;-78
2023/02/05 01:37:23;;;;;;;5.03;2.40;;;8.80;99.90;;;;;;4972914;28;20522;-79
2023/02/05 01:39:49;;;;;;;3.80;2.25;;;8.80;99.90;;;;;;4943081;28;21782;-78
2023/02/05 01:42:25;;;;;;;4.78;2.90;;;8.80;99.90;;;;;;4943072;28;20055;-79
2023/02/05 01:45:23;;;;;;;3.58;2.03;;;8.80;99.90;;;;;;4925687;29;20070;-79
2023/02/05 01:47:52;;;;;;;3.55;2.28;;;8.80;99.90;;;;;;4970987;28;20145;-78
2023/02/05 01:50:35;;;;;;;2.10;1.55;;;8.90;99.90;;;;;;4926093;29;20055;-79
2023/02/05 01:53:10;;;;;;;3.13;1.38;;;8.90;99.90;;;;;;4957311;28;20172;-79
2023/02/05 01:55:39;;;;;;;4.80;1.83;;;8.90;99.90;;;;;;4957189;28;20048;-79
2023/02/05 01:58:06;;;;;;;3.47;1.98;;;8.90;99.90;;;;;;4949306;28;20051;-77
2023/02/05 02:00:33;;;;;;;3.95;2.15;;;8.90;99.90;;;;;;4956763;28;20051;-77
2023/02/05 02:03:00;;;;;;;4.20;2.05;;;9.00;99.90;;;;;;4942316;28;20495;-77
2023/02/05 02:05:26;;;;;;;3.28;1.90;;;9.00;99.90;;;;;;4942719;28;20407;-78
2023/02/05 02:07:53;;;;;;;3.22;2.30;;;9.00;99.90;;;;;;4973351;28;20051;-78
2023/02/05 02:10:20;;;;;;;5.05;2.28;;;9.10;99.90;;;;;;4972782;28;20066;-78
2023/02/05 02:12:47;;;;;;;5.55;3.17;;;9.00;99.90;;;;;;4956607;28;20150;-77
2023/02/05 02:15:16;;;;;;;3.90;2.20;;;9.10;99.90;;;;;;4924888;29;20146;-78
2023/02/05 02:17:44;;;;;;;4.15;2.20;;;9.10;99.90;;;;;;4957013;28;20051;-78
2023/02/05 02:20:21;;;;;;;5.97;2.53;;;9.10;99.90;;;;;;4925800;29;20479;-78
2023/02/05 02:22:54;;;;;;;4.45;2.22;;;9.10;99.90;;;;;;4925592;29;20062;-78
2023/02/05 02:25:47;;;;;;;4.78;2.58;;;9.10;99.90;;;;;;4942538;28;20302;-78
2023/02/05 02:28:27;;;;;;;6.05;2.28;;;9.10;99.90;;;;;;4925006;29;20055;-78
2023/02/05 02:31:05;;;;;;;7.20;2.60;;;9.10;99.90;;;;;;4956171;28;20043;-78
2023/02/05 02:33:38;;;;;;;3.50;2.00;;;9.10;99.90;;;;;;4949349;28;20129;-78
2023/02/05 02:36:11;;;;;;;7.85;2.60;;;9.10;99.90;;;;;;4945391;29;20118;-78
2023/02/05 02:38:43;;;;;;;4.65;2.38;;;9.10;99.90;;;;;;4944924;29;20090;-77
2023/02/05 02:41:24;;;;;;;4.22;2.30;;;9.00;99.90;;;;;;4930268;29;20505;-77
2023/02/05 02:43:58;;;;;;;3.75;2.38;;;9.00;99.90;;;;;;4972381;28;20082;-78
2023/02/05 02:46:48;;;;;;;9.02;2.78;;;8.90;99.90;;;;;;4961622;28;20061;-78
2023/02/05 02:49:35;;;;;;;3.65;2.92;;;8.90;99.90;;;;;;4959410;28;20978;-77
2023/02/05 02:52:04;;;;;;;4.22;2.25;;;8.80;99.90;;;;;;4976693;28;20065;-78
2023/02/05 02:54:32;;;;;;;5.13;2.05;;;8.70;99.90;;;;;;4945050;28;20051;-77
2023/02/05 02:56:58;;;;;;;4.10;2.13;;;8.70;99.90;;;;;;4961341;28;20375;-79
2023/02/05 02:59:25;;;;;;;4.57;2.10;;;8.60;99.90;;;;;;4958663;28;20094;-78
2023/02/05 03:01:55;;;;;;;5.45;2.67;;;8.50;99.90;;;;;;4960896;28;20150;-77
2023/02/05 03:04:33;;;;;;;5.38;2.00;;;8.50;99.90;;;;;;4944138;28;20059;-79
2023/02/05 03:07:04;;;;;;;3.70;1.92;;;8.40;99.90;;;;;;4961010;28;20478;-78
2023/02/05 03:09:37;;;;;;;4.35;2.13;;;8.30;99.90;;;;;;4959907;28;20118;-77
2023/02/05 03:12:06;;;;;;;3.67;1.90;;;8.30;99.90;;;;;;4943391;28;20074;-78
2023/02/05 03:14:33;;;;;;;2.75;1.70;;;8.20;99.90;;;;;;4943058;29;20407;-78
2023/02/05 03:16:59;;;;;;;3.58;1.85;;;8.20;99.90;;;;;;4928197;29;20047;-78
2023/02/05 03:19:26;;;;;;;4.22;1.90;;;8.10;99.90;;;;;;4950869;28;20079;-78
2023/02/05 03:22:00;;;;;;;6.63;2.15;;;8.10;99.90;;;;;;4960895;28;20059;-78
2023/02/05 03:24:27;;;;;;;3.00;2.00;;;8.00;99.90;;;;;;4947741;28;20052;-78
2023/02/05 03:26:53;;;;;;;3.25;1.83;;;8.00;99.90;;;;;;4932011;29;20051;-78
2023/02/05 03:29:28;;;;;;;3.97;1.98;;;8.00;99.90;;;;;;4947209;29;20043;-78
2023/02/05 03:32:27;;;;;;;4.15;1.85;;;8.00;99.90;;;;;;4933022;29;20094;-78
2023/02/05 03:35:17;;;;;;;3.85;2.05;;;7.90;99.90;;;;;;4931814;29;20444;-78
2023/02/05 03:37:47;;;;;;;3.33;1.83;;;7.90;99.90;;;;;;4949856;29;20133;-78
2023/02/05 03:40:26;;;;;;;4.07;2.25;;;7.90;99.90;;;;;;4948368;29;20058;-78
2023/02/05 03:42:56;;;;;;;2.92;1.50;;;7.90;99.90;;;;;;4948279;28;20057;-78
2023/02/05 03:46:01;;;;;;;3.33;1.60;;;7.90;99.90;;;;;;4948259;28;20553;-77
2023/02/05 03:48:35;;;;;;;3.75;1.92;;;7.80;99.90;;;;;;4960951;28;20070;-78
2023/02/05 03:51:11;;;;;;;3.45;1.98;;;7.80;99.90;;;;;;4974125;28;20083;-79
2023/02/05 03:53:48;;;;;;;3.15;1.88;;;7.70;99.90;;;;;;4963275;28;20058;-79
2023/02/05 03:56:21;;;;;;;3.35;1.70;;;7.70;99.90;;;;;;4979097;28;20054;-79
2023/02/05 03:58:49;;;;;;;4.80;1.67;;;7.50;99.90;;;;;;4962044;28;20047;-79
2023/02/05 04:01:16;;;;;;;5.05;1.60;;;7.50;99.90;;;;;;4964150;28;20110;-76
2023/02/05 04:03:42;;;;;;;3.58;1.23;;;7.40;99.90;;;;;;4963708;28;20047;-77
2023/02/05 04:06:09;;;;;;;2.90;1.50;;;7.40;99.90;;;;;;4980112;28;20047;-77
2023/02/05 04:08:36;;;;;;;3.05;1.05;;;7.30;99.90;;;;;;4947625;29;20043;-80
2023/02/05 04:11:03;;;;;;;4.72;1.45;;;7.20;99.90;;;;;;4964025;28;20138;-77
2023/02/05 04:13:30;;;;;;;4.70;1.00;;;7.20;99.90;;;;;;4946625;29;20121;-78
2023/02/05 04:15:57;;;;;;;2.70;1.02;;;7.10;99.90;;;;;;4949105;29;20051;-77
2023/02/05 04:18:23;;;;;;;3.30;0.90;;;7.10;99.90;;;;;;4931346;29;20055;-77
2023/02/05 04:20:50;;;;;;;3.13;0.70;;;7.00;99.90;;;;;;4931614;29;20555;-77
2023/02/05 04:23:17;;;;;;;1.50;1.20;;;7.00;99.90;;;;;;4948896;28;20051;-77
2023/02/05 04:25:44;;;;;;;3.15;1.02;;;6.90;99.90;;;;;;4963737;28;20124;-77
2023/02/05 04:28:10;;;;;;;3.28;1.17;;;6.80;99.90;;;;;;4977780;28;20066;-77
2023/02/05 04:30:38;;;;;;;2.95;1.15;;;6.80;99.90;;;;;;4963170;28;20071;-78
2023/02/05 04:33:05;;;;;;;3.00;0.93;;;6.80;99.90;;;;;;4962350;28;20130;-78
2023/02/05 04:35:31;;;;;;;2.65;1.35;;;6.70;99.90;;;;;;4947745;29;20044;-77
2023/02/05 04:37:58;;;;;;;2.13;0.90;;;6.70;99.90;;;;;;4947043;29;20309;-77
2023/02/05 04:40:25;;;;;;;2.75;0.80;;;6.70;99.90;;;;;;4948308;28;20129;-77
2023/02/05 04:42:52;;;;;;;2.92;0.90;;;6.60;99.90;;;;;;4946492;28;20067;-77
2023/02/05 04:45:19;;;;;;;1.48;0.70;;;6.50;99.90;;;;;;4963081;28;20517;-78
2023/02/05 04:47:45;;;;;;;2.45;0.70;;;6.50;99.90;;;;;;4946602;29;20057;-77
2023/02/05 04:50:12;;;;;;;3.10;1.20;;;6.50;99.90;;;;;;4947967;28;20051;-78
2023/02/05 04:52:39;;;;;;;4.20;0.98;;;6.50;99.90;;;;;;4963073;28;20092;-77
2023/02/05 04:55:06;;;;;;;2.08;1.00;;;6.40;99.90;;;;;;4978796;28;20051;-77
2023/02/05 04:57:33;;;;;;;3.10;1.00;;;6.40;99.90;;;;;;4962525;28;20131;-78
2023/02/05 04:59:59;;;;;;;6.05;0.90;;;6.40;99.90;;;;;;4945286;29;20372;-78
2023/02/05 05:02:26;;;;;;;2.28;1.08;;;6.30;99.90;;;;;;4947976;28;20473;-77
2023/02/05 05:04:53;;;;;;;6.25;1.13;;;6.30;99.90;;;;;;4948000;29;20198;-77
2023/02/05 05:07:19;;;;;;;4.13;0.90;;;6.30;99.90;;;;;;4978944;28;20065;-77
2023/02/05 05:09:46;;;;;;;2.13;1.02;;;6.20;99.90;;;;;;4946837;29;20175;-76
2023/02/05 05:12:13;;;;;;;1.48;0.73;;;6.20;99.90;;;;;;4946926;29;20143;-77
2023/02/05 05:14:39;;;;;;;2.45;0.95;;;6.10;99.90;;;;;;4977666;28;20142;-77
2023/02/05 05:17:06;;;;;;;3.35;1.10;;;6.10;99.90;;;;;;4947533;29;20061;-77
2023/02/05 05:19:33;;;;;;;3.03;0.95;;;6.00;99.90;;;;;;4946200;29;20073;-77
2023/02/05 05:22:00;;;;;;;4.47;1.17;;;6.00;99.90;;;;;;4947922;28;20055;-77
2023/02/05 05:24:26;;;;;;;1.88;0.73;;;5.90;99.90;;;;;;4946138;29;20112;-76
2023/02/05 05:26:53;;;;;;;1.90;1.00;;;5.90;99.90;;;;;;4978315;28;20058;-77
2023/02/05 05:29:20;;;;;;;1.83;1.00;;;5.90;99.90;;;;;;4961101;28;20058;-77
2023/02/05 05:31:46;;;;;;;2.80;0.70;;;5.90;99.90;;;;;;4946505;29;20125;-77
2023/02/05 05:34:13;;;;;;;1.58;0.50;;;5.80;99.90;;;;;;4946791;28;20065;-77
2023/02/05 05:36:42;;;;;;;2.97;1.10;;;5.80;99.90;;;;;;4948160;28;20107;-79
2023/02/05 05:44:40;;;;;;;2.80;0.90;;;5.70;99.90;;;;;;4931547;28;20054;-79
2023/02/05 05:47:07;;;;;;;1.23;0.50;;;5.60;99.90;;;;;;4977170;28;20047;-79
2023/02/05 05:49:34;;;;;;;0.85;0.47;;;5.60;99.90;;;;;;4927008;29;20091;-79
2023/02/05 05:52:01;;;;;;;3.40;0.80;;;5.50;99.90;;;;;;4947092;29;20138;-79
2023/02/05 05:54:27;;;;;;;2.40;0.80;;;5.50;99.90;;;;;;4947073;28;20091;-79
2023/02/05 05:56:54;;;;;;;2.67;0.90;;;5.40;99.90;;;;;;4977162;28;20055;-79
2023/02/05 05:59:21;;;;;;;2.50;0.85;;;5.40;99.90;;;;;;4944394;29;20172;-79
2023/02/05 06:01:47;;;;;;;3.08;0.93;;;5.40;99.90;;;;;;4946726;28;20150;-78
2023/02/05 06:04:14;;;;;;;2.17;1.00;;;5.40;99.90;;;;;;4942659;28;20051;-79
2023/02/05 06:06:41;;;;;;;4.32;1.08;;;5.30;99.90;;;;;;4958114;28;20404;-79
2023/02/05 06:09:08;;;;;;;2.95;0.73;;;5.30;99.90;;;;;;4941480;29;20078;-78
2023/02/05 06:11:34;;;;;;;1.33;0.70;;;5.30;99.90;;;;;;4942728;28;20080;-79
2023/02/05 06:14:01;;;;;;;3.80;1.23;;;5.30;99.90;;;;;;4956955;28;20070;-79
2023/02/05 06:16:28;;;;;;;4.40;0.85;;;5.20;99.90;;;;;;4973603;28;20051;-79
2023/02/05 06:18:55;;;;;;;2.85;1.10;;;5.20;99.90;;;;;;4972974;28;20059;-79
2023/02/05 06:21:21;;;;;;;5.07;1.95;;;5.20;99.90;;;;;;4943362;28;20055;-79
2023/02/05 06:23:48;;;;;;;3.47;1.20;;;5.10;99.90;;;;;;4942913;28;20106;-79
2023/02/05 06:26:15;;;;;;;3.13;0.90;;;5.10;99.90;;;;;;4942717;28;20394;-79
2023/02/05 06:28:42;;;;;;;4.60;1.00;;;5.10;99.90;;;;;;4941068;28;20138;-79
2023/02/05 06:31:08;;;;;;;3.05;1.02;;;5.00;99.90;;;;;;4926218;29;20150;-79
2023/02/05 06:33:35;;;;;;;5.22;1.48;;;5.00;99.90;;;;;;4941925;28;20526;-79
2023/02/05 06:36:02;;;;;;;3.15;1.38;;;4.90;99.90;;;;;;4973236;28;20054;-79
2023/02/05 06:38:29;;;;;;;2.72;1.00;;;4.90;99.90;;;;;;4942079;28;20929;-79
2023/02/05 06:40:56;;;;;;;7.38;1.30;;;4.90;99.90;;;;;;4940617;28;20047;-78
2023/02/05 06:43:22;;;;;;;4.28;1.15;;;4.90;99.90;;;;;;4955813;28;20114;-79
2023/02/05 06:45:49;;;;;;;7.75;1.92;;;4.90;99.90;;;;;;4979687;28;20039;-79
2023/02/05 06:48:17;;;;;;;5.00;1.27;;;4.80;99.90;;;;;;4939411;28;20065;-79
2023/02/05 06:50:44;;;;;;;4.35;1.45;;;4.80;99.90;;;;;;4940871;29;20094;-78
2023/02/05 06:53:10;;;;;;;5.38;1.90;;;4.80;99.90;;;;;;4946800;28;20055;-79
2023/02/05 06:55:37;;;;;;;3.70;1.48;;;4.80;99.90;;;;;;4942721;28;20130;-79
2023/02/05 06:58:06;;;;;;;4.63;1.52;;;4.70;99.90;;;;;;4939659;28;20491;-79
2023/02/05 07:00:36;;;;;;;4.80;1.48;;;4.70;99.90;;;;;;4922049;29;20534;-77
2023/02/05 07:03:02;;;;;;;3.97;1.48;;;4.70;99.90;;;;;;4952075;28;20134;-77
2023/02/05 07:05:29;;;;;;;3.65;1.58;;;4.70;99.90;;;;;;4953259;28;20141;-78
2023/02/05 07:07:56;;;;;;;3.03;1.25;;;4.70;99.90;;;;;;4937194;29;20523;-77
2023/02/05 07:10:23;;;;;;;3.10;1.17;;;4.70;99.90;;;;;;4953583;28;20449;-78
2023/02/05 07:12:49;;;;;;;9.52;1.70;;;4.70;99.90;;;;;;4937293;28;20749;-76
2023/02/05 07:15:16;;;;;;;3.20;1.10;;;4.70;99.90;;;;;;4938945;29;20079;-76
2023/02/05 07:17:43;;;;;;;5.22;1.50;;;4.70;99.90;;;;;;4936649;29;20043;-77
2023/02/05 07:20:10;;;;;;;4.38;1.10;;;4.70;99.90;;;;;;4934619;29;20440;-77
2023/02/05 07:22:37;;;;;;;4.45;1.77;;;4.70;99.90;;;;;;4966950;28;20047;-77
2023/02/05 07:25:04;;;;;;;5.47;1.13;;;4.60;99.90;;;;;;4936620;28;20051;-77
2023/02/05 07:27:30;;;;;;;4.28;1.60;;;4.60;99.90;;;;;;4969019;28;20408;-78
2023/02/05 07:29:58;;;;;;;3.45;1.25;;;4.50;99.90;;;;;;4950252;28;20051;-78
2023/02/05 07:32:25;;;;;;;5.07;1.23;;;4.50;99.90;;;;;;4960268;28;20537;-77
2023/02/05 07:34:52;;;;;;;4.45;1.13;;;4.50;99.90;;;;;;4938050;29;20610;-77
2023/02/05 07:37:19;;;;;;;7.30;1.63;;;4.50;99.90;;;;;;4936843;29;20165;-78
2023/02/05 07:39:47;;;;;;;3.33;1.15;;;4.40;99.90;;;;;;4968596;28;20505;-76
2023/02/05 07:42:13;;;;;;;4.60;1.75;;;4.40;99.90;;;;;;4950315;28;20534;-78
2023/02/05 07:44:40;;;;;;;2.85;1.13;;;4.40;99.90;;;;;;4950431;28;20574;-77
2023/02/05 07:47:07;;;;;;;2.63;0.90;;;4.40;99.90;;;;;;4932437;28;20403;-79
2023/02/05 07:49:34;;;;;;;2.58;1.40;;;4.40;99.90;;;;;;4940598;28;20046;-77
2023/02/05 07:52:01;;;;;;;3.05;1.30;;;4.30;99.90;;;;;;4964785;28;20061;-78
2023/02/05 07:54:28;;;;;;;2.58;1.20;;;4.40;99.90;;;;;;4967021;28;20047;-77
2023/02/05 07:56:59;;;;;;;2.75;1.10;;;4.30;99.90;;;;;;4931896;28;20410;-78
2023/02/05 07:59:27;;;;;;;4.43;1.23;;;4.30;99.90;;;;;;4925523;28;20138;-78
2023/02/05 08:01:54;;;;;;;2.60;1.35;;;4.30;99.90;;;;;;4967589;28;20148;-77
2023/02/05 08:04:20;;;;;;;3.42;1.40;;;4.30;99.90;;;;;;4961674;28;20635;-77
2023/02/05 08:06:47;;;;;;;3.90;1.27;;;4.30;99.90;;;;;;4969488;28;20051;-77
2023/02/05 08:09:15;;;;;;;1.83;0.82;;;4.30;99.90;;;;;;4945244;28;20217;-77
2023/02/05 08:11:42;;;;;;;2.20;0.90;;;4.30;99.90;;;;;;4945743;28;20407;-77
2023/02/05 08:14:09;;;;;;;1.75;1.13;;;4.30;99.90;;;;;;4978816;28;20481;-79
2023/02/05 08:16:35;;;;;;;1.98;1.00;;;4.30;99.90;;;;;;4959025;28;20170;-77
2023/02/05 08:19:02;;;;;;;5.28;1.20;;;4.30;99.90;;;;;;4938992;28;20101;-79
2023/02/05 08:21:29;;;;;;;4.40;1.20;;;4.30;99.90;;;;;;4987398;28;20118;-79
2023/02/05 08:23:57;;;;;;;1.90;0.85;;;4.30;99.90;;;;;;4941410;28;20079;-79
2023/02/05 08:26:24;;;;;;;1.95;0.85;;;4.30;99.90;;;;;;4934160;29;20107;-77
2023/02/05 08:28:51;;;;;;;3.60;1.20;;;4.40;99.90;;;;;;4939060;28;20137;-77
2023/02/05 08:31:18;;;;;;;2.88;1.42;;;4.30;99.90;;;;;;4938928;28;20130;-78
2023/02/05 08:33:46;;;;;;;4.95;1.80;;;4.40;99.90;;;;;;4938872;28;20349;-78
2023/02/05 08:36:13;;;;;;;2.63;0.80;;;4.40;99.90;;;;;;4972450;28;20110;-78
2023/02/05 08:38:40;;;;;;;2.25;0.70;;;4.50;99.90;;;;;;4956384;28;20403;-78
2023/02/05 08:41:11;;;;;;;6.25;1.38;;;4.50;99.90;;;;;;4941003;28;20051;-78
2023/02/05 08:43:45;;;;;;;2.95;0.90;;;4.40;99.90;;;;;;4938444;29;20138;-77
2023/02/05 08:46:12;;;;;;;;;;;4.50;99.90;;;;;;4956181;28;20171;-78
2023/02/05 08:48:39;;;;;;;2.92;1.02;;;4.50;99.90;;;;;;4938967;28;19933;-78
2023/02/05 08:51:08;;;;;;;4.85;1.98;;;4.60;99.90;;;;;;4955469;28;20377;-78
2023/02/05 08:53:35;;;;;;;3.13;1.30;;;4.50;99.90;;;;;;4923513;29;20436;-77
2023/02/05 08:56:05;;;;;;;2.88;0.80;;;4.50;99.90;;;;;;4964171;28;20149;-77
2023/02/05 08:58:32;;;;;;;2.63;1.20;;;4.60;99.90;;;;;;4938203;28;20039;-77
2023/02/05 09:01:01;;;;;;;1.85;0.85;;;4.60;99.90;;;;;;4929458;28;20511;-76
2023/02/05 09:03:29;;;;;;;5.90;1.45;;;4.70;99.90;;;;;;4955260;28;20055;-78
2023/02/05 09:05:57;;;;;;;5.85;1.63;;;4.70;99.90;;;;;;4955852;28;20352;-78
2023/02/05 09:08:24;;;;;;;8.77;2.05;;;4.70;99.90;;;;;;4953639;28;20059;-77
2023/02/05 09:10:51;;;;;;;5.75;1.90;;;4.70;99.90;;;;;;4946355;28;20589;-77
2023/02/05 09:13:18;;;;;;;6.28;2.25;;;4.70;99.90;;;;;;4963161;28;20051;-77
2023/02/05 09:15:45;;;;;;;8.02;1.58;;;4.70;99.90;;;;;;4954275;28;20456;-78
2023/02/05 09:18:14;;;;;;;7.50;1.50;;;4.70;99.90;;;;;;4968298;28;20055;-77
2023/02/05 09:20:45;;;;;;;5.80;1.52;;;4.70;99.90;;;;;;4939635;28;20130;-77
2023/02/05 09:23:12;;;;;;;5.38;1.30;;;4.80;99.90;;;;;;4923072;29;20399;-78
2023/02/05 09:25:39;;;;;;;7.43;2.05;;;4.80;99.90;;;;;;4923303;29;20467;-78
2023/02/05 09:28:08;;;;;;;2.80;1.35;;;4.80;99.90;;;;;;4933322;29;20054;-78
2023/02/05 09:30:39;;;;;;;4.60;1.20;;;4.90;99.90;;;;;;4940319;28;20761;-78
2023/02/05 09:33:07;;;;;;;3.55;1.13;;;4.90;99.90;;;;;;4954686;28;20564;-78
2023/02/05 09:35:34;;;;;;;2.95;1.25;;;5.00;99.90;;;;;;4954977;28;20138;-78
2023/02/05 09:38:02;;;;;;;3.97;0.90;;;5.00;99.90;;;;;;4931752;28;20066;-77
2023/02/05 09:40:32;;;;;;;2.65;0.95;;;5.00;99.90;;;;;;4925596;28;20051;-77
2023/02/05 09:43:04;;;;;;;3.40;1.55;;;5.10;99.90;;;;;;4950346;28;20602;-77
2023/02/05 09:45:55;;;;;;;5.65;1.60;;;5.10;99.90;;;;;;4938926;29;20502;-78
2023/02/05 09:48:34;;;;;;;3.92;1.48;;;5.10;99.90;;;;;;4951762;28;20516;-78
2023/02/05 09:51:01;;;;;;;4.80;1.33;;;5.20;99.90;;;;;;4940128;28;20101;-78
2023/02/05 09:53:33;;;;;;;4.68;1.38;;;5.20;99.90;;;;;;4968600;28;20083;-77
2023/02/05 09:56:00;;;;;;;3.10;1.20;;;5.30;99.90;;;;;;4952873;28;20073;-78
2023/02/05 09:58:34;;;;;;;2.00;1.10;;;5.30;99.90;;;;;;4954254;28;20058;-77
2023/02/05 10:01:36;;;;;;;3.95;1.10;;;5.40;99.90;;;;;;4937221;29;20146;-78
2023/02/05 10:04:05;;;;;;;2.15;0.90;;;5.50;99.90;;;;;;4933860;28;20051;-78
2023/02/05 10:06:38;;;;;;;3.30;0.95;;;5.50;99.90;;;;;;4940694;28;20473;-78
2023/02/05 10:09:23;;;;;;;3.10;1.25;;;5.50;99.90;;;;;;4943692;28;20063;-77
2023/02/05 10:12:18;;;;;;;3.40;0.88;;;5.60;99.90;;;;;;4933316;29;20065;-77
2023/02/05 10:14:54;;;;;;;2.55;1.10;;;5.70;99.90;;;;;;4965365;28;20059;-77
2023/02/05 10:17:33;;;;;;;2.75;0.90;;;5.80;99.90;;;;;;4938024;28;20055;-77
2023/02/05 10:20:31;;;;;;;1.48;0.93;;;5.90;99.90;;;;;;4952894;28;20322;-78
2023/02/05 10:23:14;;;;;;;3.00;1.17;;;5.90;99.90;;;;;;4970027;28;20462;-77
2023/02/05 10:25:56;;;;;;;2.88;1.23;;;6.00;99.90;;;;;;4938762;28;20154;-79
2023/02/05 10:28:33;;;;;;;2.40;0.70;;;6.00;99.90;;;;;;4934721;28;20047;-77
2023/02/05 10:31:06;;;;;;;3.83;1.13;;;6.10;99.90;;;;;;4919046;28;20057;-78
2023/02/05 10:33:40;;;;;;;3.83;1.00;;;6.10;99.90;;;;;;4966542;28;20058;-77
2023/02/05 10:36:07;;;;;;;3.78;1.25;;;6.10;99.90;;;;;;4964126;28;20525;-77
2023/02/05 10:38:42;;;;;;;5.35;1.30;;;6.20;99.90;;;;;;4949739;28;20055;-78
2023/02/05 10:41:24;;;;;;;3.22;1.55;;;6.20;99.90;;;;;;4949477;28;20052;-77
2023/02/05 10:43:56;;;;;;;2.53;1.00;;;6.30;99.90;;;;;;4962492;28;20087;-78
2023/02/05 10:46:27;;;;;;;5.75;1.30;;;6.30;99.90;;;;;;4964244;28;20450;-77
2023/02/05 10:48:57;;;;;;;6.93;1.10;;;6.40;99.90;;;;;;4966834;28;20570;-77
2023/02/05 10:51:31;;;;;;;5.78;2.22;;;6.40;99.90;;;;;;4921574;29;20062;-78
2023/02/05 10:53:58;;;;;;;4.88;1.70;;;6.50;99.90;;;;;;4922891;29;20066;-77
2023/02/05 10:56:25;;;;;;;5.75;1.73;;;6.50;99.90;;;;;;4954477;28;20055;-78
2023/02/05 10:58:59;;;;;;;5.78;1.20;;;6.60;99.90;;;;;;4949015;28;20134;-78
2023/02/05 11:01:31;;;;;;;6.32;1.02;;;6.70;99.90;;;;;;4935486;28;20055;-77
2023/02/05 11:04:10;;;;;;;3.28;1.50;;;6.70;99.90;;;;;;4965148;28;20050;-78
2023/02/05 11:06:40;;;;;;;4.55;1.63;;;6.80;99.90;;;;;;4967451;28;20054;-78
2023/02/05 11:09:25;;;;;;;5.22;1.55;;;6.80;99.90;;;;;;4935975;29;20145;-77
2023/02/05 11:11:57;;;;;;;3.90;1.17;;;6.90;99.90;;;;;;4938081;29;20091;-78
2023/02/05 11:14:31;;;;;;;2.97;1.05;;;6.90;99.90;;;;;;4938333;28;20110;-78
2023/02/05 11:17:02;;;;;;;4.57;1.60;;;7.00;99.90;;;;;;4954257;28;20058;-77
2023/02/05 11:19:29;;;;;;;5.18;1.30;;;7.10;99.90;;;;;;4954079;28;20065;-77
2023/02/05 11:21:59;;;;;;;2.60;1.15;;;7.10;99.90;;;;;;4954388;28;20055;-78
2023/02/05 11:24:31;;;;;;;3.63;1.10;;;7.10;99.90;;;;;;4949944;28;20099;-79
2023/02/05 11:27:27;;;;;;;3.83;1.60;;;7.20;99.90;;;;;;4951387;28;20265;-77
2023/02/05 11:29:54;;;;;;;3.90;1.10;;;7.20;99.90;;;;;;4932438;29;20058;-78
2023/02/05 11:32:35;;;;;;;4.60;1.45;;;7.30;99.90;;;;;;4952144;28;20070;-77
2023/02/05 11:35:21;;;;;;;5.10;2.35;;;7.30;99.90;;;;;;4956580;28;20067;-78
2023/02/05 11:38:19;;;;;;;3.33;1.52;;;7.40;99.90;;;;;;4948918;28;20056;-78
2023/02/05 11:40:52;;;;;;;4.50;1.40;;;7.50;99.90;;;;;;4925977;28;20058;-78
2023/02/05 11:43:21;;;;;;;4.18;1.38;;;7.70;99.90;;;;;;4953212;28;20138;-78
2023/02/05 11:45:49;;;;;;;4.10;1.40;;;7.80;99.90;;;;;;4942029;28;20059;-78
2023/02/05 11:48:27;;;;;;;2.35;1.20;;;7.90;99.90;;;;;;4964711;28;20058;-77
2023/02/05 11:50:54;;;;;;;4.28;1.27;;;8.10;99.90;;;;;;4941200;29;20083;-78
2023/02/05 11:53:22;;;;;;;5.50;1.20;;;8.20;99.90;;;;;;4972727;28;20046;-78
2023/02/05 11:56:10;;;;;;;3.25;1.23;;;8.30;99.90;;;;;;4972616;28;20130;-77
2023/02/05 11:58:37;;;;;;;3.60;1.25;;;8.50;99.90;;;;;;4956368;28;20051;-77
2023/02/05 12:01:19;;;;;;;3.22;1.80;;;8.70;99.90;;;;;;4941334;28;20154;-78
2023/02/05 12:04:00;;;;;;;5.32;1.00;;;8.90;99.90;;;;;;4939685;29;20166;-78
2023/02/05 12:06:38;;;;;;;3.97;1.33;;;9.30;99.90;;;;;;4964418;28;20561;-77
2023/02/05 12:09:05;;;;;;;5.95;1.80;;;9.70;99.90;;;;;;4962193;28;20052;-77
2023/02/05 12:14:38;;;;;;;3.25;1.20;;;10.10;99.90;;;;;;4939378;28;20378;-78
2023/02/05 12:17:32;;;;;;;3.78;1.42;;;10.00;99.90;;;;;;4972416;28;20268;-78
2023/02/05 12:20:14;;;;;;;3.90;1.45;;;9.80;99.90;;;;;;4922840;29;20047;-78
2023/02/05 12:23:06;;;;;;;3.90;1.63;;;9.70;99.90;;;;;;4971734;28;20043;-77
2023/02/05 12:26:02;;;;;;;2.60;1.05;;;9.70;99.90;;;;;;4964675;28;20479;-77
2023/02/05 12:28:29;;;;;;;3.03;1.10;;;9.70;99.90;;;;;;4929419;28;20051;-77
2023/02/05 12:31:22;;;;;;;3.28;1.10;;;9.60;99.90;;;;;;4966510;28;20663;-77
2023/02/05 12:34:00;;;;;;;1.52;0.65;;;9.50;99.90;;;;;;4951298;28;20526;-78
2023/02/05 12:36:29;;;;;;;3.85;1.30;;;9.70;99.90;;;;;;4955595;28;20070;-77
2023/02/05 12:39:11;;;;;;;2.92;1.50;;;9.50;99.90;;;;;;4940226;28;20460;-78
2023/02/05 12:41:56;;;;;;;2.72;1.10;;;9.60;99.90;;;;;;4926179;29;20130;-77
2023/02/05 12:44:43;;;;;;;4.13;1.83;;;9.80;99.90;;;;;;4931638;29;20058;-76
2023/02/05 12:47:31;;;;;;;3.75;1.50;;;9.90;99.90;;;;;;4969081;28;20570;-77
2023/02/05 12:50:17;;;;;;;6.97;1.55;;;10.10;99.90;;;;;;4967794;28;20170;-77
2023/02/05 12:52:54;;;;;;;3.88;1.45;;;10.30;99.90;;;;;;4956530;28;20082;-77
2023/02/05 12:55:40;;;;;;;3.97;1.65;;;10.50;99.90;;;;;;4961060;28;20055;-77
2023/02/05 12:58:09;;;;;;;3.55;1.52;;;10.60;99.90;;;;;;4972467;28;20326;-77
2023/02/05 13:00:49;;;;;;;3.60;1.58;;;10.60;99.90;;;;;;4958187;28;20253;-78
2023/02/05 13:03:46;;;;;;;3.10;1.42;;;10.90;99.90;;;;;;4940863;29;20118;-78
2023/02/05 13:06:20;;;;;;;3.67;1.40;;;11.20;99.90;;;;;;4970831;28;20074;-78
2023/02/05 13:08:55;;;;;;;4.07;1.40;;;11.40;99.90;;;;;;4957869;28;20051;-77
2023/02/05 13:11:34;;;;;;;3.15;1.38;;;11.70;99.90;;;;;;4940684;29;20075;-80
2023/02/05 13:14:04;;;;;;;4.43;1.27;;;11.80;99.90;;;;;;4971210;28;20126;-78
2023/02/05 13:16:36;;;;;;;2.40;1.30;;;11.90;99.90;;;;;;4941621;29;20051;-81
2023/02/05 13:19:25;;;;;;;3.00;1.13;;;11.90;99.90;;;;;;4939190;28;20069;-79
2023/02/05 13:30:49;;;;;;;3.40;1.30;;;12.90;99.90;;;;;;4924343;29;20129;-79
2023/02/05 13:33:16;;;;;;;3.83;1.63;;;13.00;99.90;;;;;;4961541;28;20138;-79
2023/02/05 13:36:16;;;;;;;3.33;1.80;;;12.70;99.90;;;;;;4953720;28;20638;-79